This is the latest recevied weather packets stored in our database for station/object HI3R-13. If no packets are shown the sender has not sent any weather packets the latest 10 day(s).
| Time | Temp. | Humidity | Pressure | Rain* | Wind** | Luminosity | Snow |
|---|---|---|---|---|---|---|---|
| 1777365338 | 21.67° C | 91% | 985.8 hPa | 0 mm | - | - | - |
| 1777362337 | 21.67° C | 91% | 985.9 hPa | 0 mm | - | - | - |
| 1777352717 | 22.22° C | 89% | 987.6 hPa | 0 mm | - | - | - |
| 1777349717 | 22.22° C | 89% | 988 hPa | 0.25 mm | - | - | - |
| 1777347316 | 22.78° C | 88% | 988.1 hPa | 0.51 mm | - | - | - |
| 1777341917 | 22.78° C | 87% | 988.6 hPa | 0.25 mm | - | - | - |
| 1777339517 | 22.78° C | 86% | 988.2 hPa | 0.25 mm | - | - | - |
| 1777332337 | 23.89° C | 81% | 986 hPa | 0 mm | - | - | - |
| 1777331117 | 24.44° C | 75% | 985.9 hPa | 0 mm | - | - | - |
| 1777329317 | 24.44° C | 77% | 985.5 hPa | 0.25 mm | - | - | - |
| 1777328117 | 23.89° C | 82% | 985.2 hPa | 5.59 mm | - | - | - |
| 1777325116 | 26.11° C | 77% | 984.9 hPa | 6.6 mm | - | - | - |
| 1777319737 | 31.11° C | 54% | 984.4 hPa | 0 mm | - | - | - |
| 1777305917 | 30.56° C | 51% | 986.4 hPa | 0 mm | - | - | - |
| 1777302917 | 29.44° C | 54% | 986.7 hPa | 0 mm | - | - | - |
| 1777298717 | 28.33° C | 60% | 987 hPa | 0 mm | - | - | - |
| 1777298117 | 27.78° C | 64% | 987 hPa | 0 mm | - | - | - |
| 1777289716 | 22.22° C | 91% | 986 hPa | 0 mm | - | - | - |
| 1777287936 | 21.11° C | 91% | 985.5 hPa | 0 mm | - | - | - |
| 1777287316 | 21.11° C | 91% | 985.4 hPa | 0 mm | - | - | - |
| 1777286116 | 21.11° C | 91% | 985 hPa | 0 mm | - | - | - |
| 1777283116 | 21.11° C | 90% | 984.4 hPa | 0 mm | - | - | - |
| 1777281316 | 21.67° C | 90% | 984.3 hPa | 0 mm | - | - | - |
| 1777277736 | 21.67° C | 90% | 983.9 hPa | 0 mm | - | - | - |
| 1777268717 | 22.78° C | 89% | 985 hPa | 0 mm | - | - | - |
* Rain latest hour (hover to see other rain measurements)
** Current wind speed in m/s (hover to see current wind gust speed)